createdAt,value
2023-05-04T00:00:59.453Z,7.11
2023-05-04T00:03:26.148Z,6.93
2023-05-04T00:05:52.838Z,6.51
2023-05-04T00:08:19.383Z,6.77
2023-05-04T00:10:45.959Z,6.37
2023-05-04T00:13:12.622Z,6.40
2023-05-04T00:15:39.300Z,7.11
2023-05-04T00:18:05.847Z,7.19
2023-05-04T00:20:32.497Z,7.19
2023-05-04T00:22:59.054Z,7.51
2023-05-04T00:25:25.874Z,7.35
2023-05-04T00:27:52.386Z,7.57
2023-05-04T00:30:21.744Z,7.48
2023-05-04T00:32:49.231Z,7.52
2023-05-04T00:35:16.310Z,7.57
2023-05-04T00:37:43.848Z,7.64
2023-05-04T00:40:10.743Z,7.90
2023-05-04T00:42:37.284Z,7.84
2023-05-04T00:45:04.002Z,7.92
2023-05-04T00:47:30.598Z,7.91
2023-05-04T00:49:57.258Z,7.89
2023-05-04T00:52:24.207Z,7.67
2023-05-04T00:54:52.021Z,7.49
2023-05-04T00:57:18.550Z,7.52
2023-05-04T00:59:45.159Z,7.36
2023-05-04T01:02:11.696Z,6.99
2023-05-04T01:04:38.372Z,7.20
2023-05-04T01:07:19.999Z,7.38
2023-05-04T01:10:07.306Z,6.98
2023-05-04T01:12:34.011Z,7.39
2023-05-04T01:15:00.793Z,7.03
2023-05-04T01:17:28.715Z,6.64
2023-05-04T01:19:55.329Z,6.58
2023-05-04T01:22:22.153Z,6.53
2023-05-04T01:24:49.645Z,6.69
2023-05-04T01:27:25.445Z,6.85
2023-05-04T01:30:21.560Z,6.93
2023-05-04T01:32:49.651Z,6.97
2023-05-04T01:35:16.356Z,7.00
2023-05-04T01:37:43.066Z,6.93
2023-05-04T01:40:09.862Z,6.77
2023-05-04T01:42:36.592Z,6.98
2023-05-04T01:45:04.705Z,6.75
2023-05-04T01:47:31.817Z,6.36
2023-05-04T01:49:58.495Z,6.45
2023-05-04T01:52:25.065Z,6.49
2023-05-04T01:54:51.629Z,6.60
2023-05-04T01:57:18.194Z,6.80
2023-05-04T01:59:44.763Z,6.28
2023-05-04T02:02:11.502Z,6.31
2023-05-04T02:04:38.137Z,6.53
2023-05-04T02:07:04.789Z,6.65
2023-05-04T02:09:31.857Z,6.66
2023-05-04T02:11:58.440Z,6.23
2023-05-04T02:14:25.002Z,6.58
2023-05-04T02:16:51.997Z,6.85
2023-05-04T02:19:18.536Z,6.77
2023-05-04T02:21:45.222Z,6.61
2023-05-04T02:24:11.878Z,6.48
2023-05-04T02:26:39.712Z,6.32
2023-05-04T02:29:06.375Z,6.30
2023-05-04T02:31:34.208Z,6.57
2023-05-04T02:34:01.603Z,6.39
2023-05-04T02:36:29.738Z,6.31
2023-05-04T02:38:56.304Z,5.88
2023-05-04T02:41:22.924Z,6.08
2023-05-04T02:43:52.144Z,6.21
2023-05-04T02:46:20.193Z,5.21
2023-05-04T02:48:46.843Z,5.44
2023-05-04T02:51:13.419Z,5.73
2023-05-04T02:53:39.981Z,5.36
2023-05-04T02:56:06.857Z,5.38
2023-05-04T02:58:33.390Z,5.64
2023-05-04T03:01:00.109Z,5.99
2023-05-04T03:03:26.936Z,6.07
2023-05-04T03:05:53.593Z,6.03
2023-05-04T03:08:20.144Z,6.02
2023-05-04T03:10:46.738Z,5.55
2023-05-04T03:13:13.314Z,5.63
2023-05-04T03:15:41.306Z,5.49
2023-05-04T03:18:08.017Z,5.40
2023-05-04T03:20:36.098Z,5.66
2023-05-04T03:23:02.842Z,5.12
2023-05-04T03:25:31.087Z,5.32
2023-05-04T03:27:57.686Z,5.02
2023-05-04T03:30:24.368Z,5.39
2023-05-04T03:32:54.137Z,5.33
2023-05-04T03:35:24.722Z,5.16
2023-05-04T03:37:56.198Z,5.37
2023-05-04T03:40:24.267Z,5.16
2023-05-04T03:42:52.894Z,5.29
2023-05-04T03:45:20.611Z,5.57
2023-05-04T03:47:47.153Z,5.77
2023-05-04T03:50:13.856Z,5.61
2023-05-04T03:52:42.179Z,5.73
2023-05-04T03:55:10.367Z,5.73
2023-05-04T03:57:37.054Z,5.49
2023-05-04T04:00:05.851Z,5.36
2023-05-04T04:02:41.804Z,5.67
2023-05-04T04:05:14.828Z,5.78
2023-05-04T04:07:41.726Z,5.61
2023-05-04T04:10:09.226Z,4.98
2023-05-04T04:12:36.489Z,5.69
2023-05-04T04:15:03.151Z,5.62
2023-05-04T04:17:29.832Z,5.78
2023-05-04T04:19:56.803Z,5.92
2023-05-04T04:22:23.420Z,6.37
2023-05-04T04:24:49.987Z,5.97
2023-05-04T04:27:16.625Z,6.15
2023-05-04T04:29:43.127Z,6.44
2023-05-04T04:32:09.751Z,6.58
2023-05-04T04:34:36.596Z,6.70
2023-05-04T04:37:03.224Z,7.04
2023-05-04T04:39:29.840Z,7.25
2023-05-04T04:41:56.498Z,7.32
2023-05-04T04:44:23.017Z,7.34
2023-05-04T04:46:49.735Z,7.37
2023-05-04T04:49:17.933Z,7.41
2023-05-04T04:51:44.702Z,7.59
2023-05-04T04:54:11.970Z,7.62
2023-05-04T04:56:41.781Z,7.56
2023-05-04T04:59:08.375Z,7.62
2023-05-04T05:01:35.128Z,7.85
2023-05-04T05:04:01.841Z,7.72
2023-05-04T05:06:28.402Z,7.69
2023-05-04T05:08:54.943Z,7.97
2023-05-04T05:11:21.850Z,8.02
2023-05-04T05:13:50.827Z,8.10
2023-05-04T05:16:17.466Z,8.45
2023-05-04T05:18:44.028Z,8.39
2023-05-04T05:21:11.032Z,8.59
2023-05-04T05:23:37.709Z,8.11
2023-05-04T05:26:04.310Z,8.57
2023-05-04T05:28:30.894Z,8.89
2023-05-04T05:30:57.587Z,8.85
2023-05-04T05:33:24.277Z,9.05
2023-05-04T05:35:50.871Z,9.14
2023-05-04T05:38:18.032Z,9.47
2023-05-04T05:40:44.681Z,9.57
2023-05-04T05:43:11.218Z,9.91
2023-05-04T05:45:37.853Z,9.78
2023-05-04T05:48:04.499Z,9.98
2023-05-04T05:50:31.089Z,9.69
2023-05-04T05:52:57.637Z,9.82
2023-05-04T05:55:24.253Z,10.17
2023-05-04T05:57:50.830Z,10.58
2023-05-04T06:00:17.736Z,10.61
2023-05-04T06:02:44.397Z,10.85
2023-05-04T06:05:11.642Z,10.48
2023-05-04T06:07:40.736Z,10.66
2023-05-04T06:10:09.550Z,10.73
2023-05-04T06:12:36.355Z,10.80
2023-05-04T06:15:02.980Z,11.04
2023-05-04T06:17:29.585Z,11.04
2023-05-04T06:19:56.434Z,10.93
2023-05-04T06:22:26.038Z,11.31
2023-05-04T06:24:58.365Z,11.42
2023-05-04T06:27:31.322Z,11.55
2023-05-04T06:29:58.913Z,11.55
2023-05-04T06:32:25.504Z,11.51
2023-05-04T06:35:02.736Z,11.51
2023-05-04T06:37:31.795Z,11.54
2023-05-04T06:39:58.377Z,11.68
2023-05-04T06:42:24.953Z,11.57
2023-05-04T06:44:54.068Z,11.79
2023-05-04T06:47:20.867Z,11.79
2023-05-04T06:49:47.538Z,11.80
2023-05-04T06:52:14.456Z,11.95
2023-05-04T06:54:41.103Z,11.90
2023-05-04T06:57:07.710Z,11.98
2023-05-04T06:59:34.240Z,12.14
2023-05-04T07:02:00.824Z,12.39
2023-05-04T07:04:32.736Z,12.21
2023-05-04T07:06:59.355Z,12.45
2023-05-04T07:09:26.106Z,12.62
2023-05-04T07:11:52.785Z,12.93
2023-05-04T07:14:19.311Z,12.76
2023-05-04T07:16:48.828Z,12.87
2023-05-04T07:19:15.426Z,13.11
2023-05-04T07:21:42.812Z,13.30
2023-05-04T07:24:09.389Z,13.29
2023-05-04T07:26:36.098Z,13.18
2023-05-04T07:29:02.603Z,13.46
2023-05-04T07:31:30.644Z,13.66
2023-05-04T07:33:59.834Z,13.97
2023-05-04T07:36:27.820Z,14.10
2023-05-04T07:38:54.378Z,14.16
2023-05-04T07:41:21.037Z,14.29
2023-05-04T07:43:49.449Z,14.30
2023-05-04T07:46:17.237Z,14.45
2023-05-04T07:48:43.941Z,14.50
2023-05-04T07:51:14.661Z,14.73
2023-05-04T07:53:42.515Z,15.11
2023-05-04T07:56:12.848Z,15.65
2023-05-04T07:58:39.871Z,15.70
2023-05-04T08:01:06.437Z,15.77
2023-05-04T08:03:35.399Z,15.87
2023-05-04T08:06:09.931Z,16.01
2023-05-04T08:08:36.522Z,15.90
2023-05-04T08:11:18.731Z,15.90
2023-05-04T08:13:47.771Z,16.00
2023-05-04T08:16:14.571Z,16.29
2023-05-04T08:18:41.109Z,16.70
2023-05-04T08:21:07.786Z,16.51
2023-05-04T08:23:34.390Z,16.76
2023-05-04T08:26:04.697Z,16.92
2023-05-04T08:28:33.100Z,16.81
2023-05-04T08:30:59.680Z,17.18
2023-05-04T08:33:29.414Z,17.34
2023-05-04T08:35:56.070Z,17.40
2023-05-04T08:38:22.629Z,17.24
2023-05-04T08:40:50.593Z,17.16
2023-05-04T08:43:17.322Z,17.11
2023-05-04T08:45:45.102Z,17.45
2023-05-04T08:48:14.756Z,17.55
2023-05-04T08:50:43.557Z,17.76
2023-05-04T08:53:11.934Z,17.82
2023-05-04T08:55:39.396Z,17.59
2023-05-04T08:58:10.051Z,17.30
2023-05-04T09:00:38.017Z,17.75
2023-05-04T09:03:05.593Z,17.59
2023-05-04T09:05:32.603Z,18.13
2023-05-04T09:07:59.150Z,18.48
2023-05-04T09:10:28.172Z,18.56
2023-05-04T09:12:56.267Z,18.50
2023-05-04T09:15:23.544Z,18.69
2023-05-04T09:18:03.512Z,18.64
2023-05-04T09:20:30.834Z,18.36
2023-05-04T09:23:22.511Z,18.16
2023-05-04T09:25:51.722Z,18.17
2023-05-04T09:28:19.057Z,18.39
2023-05-04T09:30:46.858Z,18.73
2023-05-04T09:33:13.518Z,19.19
2023-05-04T09:35:40.581Z,19.52
2023-05-04T09:38:07.470Z,19.16
2023-05-04T09:40:38.842Z,19.33
2023-05-04T09:43:06.619Z,19.75
2023-05-04T09:45:43.874Z,20.02
2023-05-04T09:48:20.061Z,19.80
2023-05-04T09:50:53.834Z,20.34
2023-05-04T09:53:27.373Z,19.75
2023-05-04T09:56:06.464Z,19.93
2023-05-04T09:58:34.797Z,19.72
2023-05-04T10:01:01.796Z,20.02
2023-05-04T10:03:31.429Z,20.30
2023-05-04T10:05:59.165Z,20.06
2023-05-04T10:08:27.144Z,20.19
2023-05-04T10:10:53.799Z,19.98
2023-05-04T10:13:20.303Z,20.14
2023-05-04T10:16:08.875Z,20.31
2023-05-04T10:18:41.647Z,20.61
2023-05-04T10:21:25.204Z,20.71
2023-05-04T10:23:54.844Z,20.90
2023-05-04T10:26:39.294Z,20.60
2023-05-04T10:29:12.411Z,20.66
2023-05-04T10:31:42.925Z,20.37
2023-05-04T10:34:12.976Z,20.39
2023-05-04T10:36:41.934Z,20.57
2023-05-04T10:39:21.429Z,20.79
2023-05-04T10:42:11.651Z,20.37
2023-05-04T10:45:01.008Z,20.65
2023-05-04T10:47:32.634Z,20.83
2023-05-04T10:50:10.668Z,20.66
2023-05-04T10:52:50.659Z,21.16
2023-05-04T10:55:17.845Z,21.96
2023-05-04T10:57:51.847Z,22.54
2023-05-04T11:00:19.122Z,23.29
2023-05-04T11:02:49.158Z,23.35
2023-05-04T11:05:22.835Z,22.79
2023-05-04T11:07:55.148Z,23.15
2023-05-04T11:10:22.878Z,23.34
2023-05-04T11:12:49.506Z,24.01
2023-05-04T11:15:16.194Z,24.01
2023-05-04T11:17:52.842Z,23.66
2023-05-04T11:20:20.736Z,23.25
2023-05-04T11:22:50.088Z,22.95
2023-05-04T11:25:19.627Z,23.05
2023-05-04T11:27:49.515Z,23.07
2023-05-04T11:30:17.015Z,23.98
2023-05-04T11:32:52.805Z,23.99
2023-05-04T11:35:22.123Z,24.37
2023-05-04T11:37:49.609Z,24.72
2023-05-04T11:40:20.622Z,24.98
2023-05-04T11:42:48.477Z,25.52
2023-05-04T11:45:28.623Z,25.03
2023-05-04T11:47:56.695Z,25.61
2023-05-04T11:50:24.558Z,25.22
2023-05-04T11:52:51.241Z,25.42
2023-05-04T11:55:27.638Z,25.15
2023-05-04T11:58:07.755Z,24.75
2023-05-04T12:00:41.255Z,23.98
2023-05-04T12:03:09.013Z,24.04
2023-05-04T12:05:36.492Z,24.11
2023-05-04T12:08:03.658Z,24.64
2023-05-04T12:10:34.749Z,24.17
2023-05-04T12:13:14.920Z,24.22
2023-05-04T12:15:41.853Z,23.97
2023-05-04T12:18:22.121Z,24.17
2023-05-04T12:20:48.767Z,24.37
2023-05-04T12:23:15.280Z,24.96
2023-05-04T12:25:54.801Z,25.08
2023-05-04T12:28:27.256Z,25.24
2023-05-04T12:30:56.372Z,26.27
2023-05-04T12:33:23.437Z,26.16
2023-05-04T12:35:50.000Z,25.55
2023-05-04T12:38:16.592Z,26.16
2023-05-04T12:40:43.553Z,25.74
2023-05-04T12:43:10.377Z,25.68
2023-05-04T12:45:37.462Z,25.49
2023-05-04T12:48:04.154Z,25.50
2023-05-04T12:50:30.809Z,24.99
2023-05-04T12:52:57.409Z,24.64
2023-05-04T12:55:25.450Z,24.49
2023-05-04T12:57:52.227Z,24.78
2023-05-04T13:00:19.289Z,25.05
2023-05-04T13:02:46.112Z,24.29
2023-05-04T13:05:13.133Z,25.26
2023-05-04T13:07:42.693Z,25.05
2023-05-04T13:10:09.519Z,25.27
2023-05-04T13:12:36.642Z,25.82
2023-05-04T13:15:11.556Z,26.77
2023-05-04T13:17:39.114Z,25.75
2023-05-04T13:20:09.009Z,26.01
2023-05-04T13:22:35.786Z,25.63
2023-05-04T13:25:11.222Z,25.15
2023-05-04T13:27:38.176Z,25.93
2023-05-04T13:30:05.148Z,26.67
2023-05-04T13:32:34.970Z,26.53
2023-05-04T13:35:01.573Z,26.17
2023-05-04T13:37:31.163Z,26.16
2023-05-04T13:39:59.560Z,26.75
2023-05-04T13:42:26.261Z,25.51
2023-05-04T13:44:53.002Z,26.28
2023-05-04T13:47:19.592Z,25.11
2023-05-04T13:49:46.526Z,25.55
2023-05-04T13:52:13.530Z,26.27
2023-05-04T13:54:40.286Z,26.40
2023-05-04T13:57:07.335Z,25.59
2023-05-04T13:59:36.519Z,25.23
2023-05-04T14:02:03.246Z,25.31
2023-05-04T14:04:30.245Z,24.84
2023-05-04T14:06:57.737Z,24.95
2023-05-04T14:09:27.779Z,24.86
2023-05-04T14:11:54.370Z,24.13
2023-05-04T14:14:23.894Z,24.31
2023-05-04T14:16:50.560Z,24.00
2023-05-04T14:19:22.583Z,23.60
2023-05-04T14:21:51.462Z,23.33
2023-05-04T14:24:18.020Z,23.44
2023-05-04T14:26:44.614Z,23.29
2023-05-04T14:29:11.128Z,23.67
2023-05-04T14:31:37.813Z,24.00
2023-05-04T14:34:06.728Z,23.12
2023-05-04T14:36:35.702Z,23.85
2023-05-04T14:39:03.426Z,23.56
2023-05-04T14:41:33.829Z,23.49
2023-05-04T14:44:00.684Z,23.36
2023-05-04T14:46:28.478Z,22.57
2023-05-04T14:48:55.261Z,23.12
2023-05-04T14:51:22.881Z,22.90
2023-05-04T14:53:49.433Z,23.08
2023-05-04T14:56:16.000Z,23.32
2023-05-04T14:58:42.587Z,22.88
2023-05-04T15:01:09.351Z,22.96
2023-05-04T15:03:38.371Z,22.39
2023-05-04T15:06:05.718Z,22.70
2023-05-04T15:08:32.315Z,22.74
2023-05-04T15:10:59.464Z,22.98
2023-05-04T15:13:26.171Z,22.80
2023-05-04T15:15:53.031Z,23.08
2023-05-04T15:18:20.916Z,22.61
2023-05-04T15:20:47.556Z,23.15
2023-05-04T15:23:14.147Z,22.49
2023-05-04T15:25:41.998Z,22.52
2023-05-04T15:28:14.325Z,22.58
2023-05-04T15:30:41.375Z,22.96
2023-05-04T15:33:08.217Z,23.07
2023-05-04T15:35:35.396Z,22.30
2023-05-04T15:38:02.294Z,22.47
2023-05-04T15:40:29.227Z,22.00
2023-05-04T15:42:56.057Z,21.65
2023-05-04T15:45:23.208Z,21.64
2023-05-04T15:47:49.847Z,21.85
2023-05-04T15:50:16.515Z,21.75
2023-05-04T15:52:43.063Z,21.76
2023-05-04T15:55:24.598Z,21.85
2023-05-04T15:57:55.104Z,21.73
2023-05-04T16:00:23.961Z,21.84
2023-05-04T16:02:50.662Z,21.59
2023-05-04T16:05:21.085Z,21.49
2023-05-04T16:07:53.792Z,21.57
2023-05-04T16:10:20.744Z,21.46
2023-05-04T16:12:47.327Z,21.44
2023-05-04T16:15:14.064Z,21.24
2023-05-04T16:17:40.691Z,21.26
2023-05-04T16:20:08.177Z,21.42
2023-05-04T16:22:35.100Z,21.33
2023-05-04T16:25:02.091Z,21.27
2023-05-04T16:27:28.811Z,20.99
2023-05-04T16:29:55.792Z,20.89
2023-05-04T16:32:22.581Z,21.16
2023-05-04T16:34:49.407Z,21.51
2023-05-04T16:37:17.425Z,21.59
2023-05-04T16:39:44.045Z,21.37
2023-05-04T16:42:10.642Z,21.67
2023-05-04T16:44:37.417Z,21.29
2023-05-04T16:47:03.996Z,20.97
2023-05-04T16:49:30.727Z,21.04
2023-05-04T16:51:57.363Z,21.06
2023-05-04T16:54:26.425Z,21.01
2023-05-04T16:56:55.437Z,20.99
2023-05-04T16:59:22.055Z,20.94
2023-05-04T17:01:48.623Z,21.11
2023-05-04T17:04:15.315Z,20.74
2023-05-04T17:06:41.852Z,20.88
2023-05-04T17:09:08.478Z,20.59
2023-05-04T17:11:35.063Z,20.96
2023-05-04T17:14:04.038Z,20.59
2023-05-04T17:16:31.208Z,20.57
2023-05-04T17:19:03.034Z,20.36
2023-05-04T17:21:29.649Z,20.22
2023-05-04T17:23:56.190Z,20.32
2023-05-04T17:26:22.811Z,20.16
2023-05-04T17:28:49.710Z,20.26
2023-05-04T17:31:16.357Z,20.09
2023-05-04T17:33:42.920Z,20.17
2023-05-04T17:36:12.118Z,19.94
2023-05-04T17:38:42.050Z,19.90
2023-05-04T17:41:12.069Z,20.09
2023-05-04T17:43:40.959Z,19.88
2023-05-04T17:46:08.190Z,19.86
2023-05-04T17:48:40.016Z,19.96
2023-05-04T17:51:09.747Z,19.93
2023-05-04T17:53:36.434Z,19.89
2023-05-04T17:56:03.092Z,19.82
2023-05-04T17:58:31.978Z,19.63
2023-05-04T18:01:00.899Z,19.65
2023-05-04T18:03:27.466Z,19.65
2023-05-04T18:05:54.108Z,19.54
2023-05-04T18:08:23.706Z,19.46
2023-05-04T18:10:50.717Z,19.27
2023-05-04T18:13:20.414Z,19.13
2023-05-04T18:15:47.552Z,19.30
2023-05-04T18:18:17.034Z,19.38
2023-05-04T18:20:43.657Z,19.16
2023-05-04T18:23:13.034Z,18.80
2023-05-04T18:25:39.690Z,18.87
2023-05-04T18:28:06.815Z,18.74
2023-05-04T18:30:33.497Z,18.55
2023-05-04T18:33:00.138Z,18.40
2023-05-04T18:35:27.003Z,18.35
2023-05-04T18:37:53.509Z,18.41
2023-05-04T18:40:20.122Z,18.35
2023-05-04T18:42:46.615Z,18.27
2023-05-04T18:45:13.329Z,18.23
2023-05-04T18:47:39.863Z,18.05
2023-05-04T18:50:09.357Z,17.85
2023-05-04T18:52:35.977Z,17.72
2023-05-04T18:55:11.306Z,17.56
2023-05-04T18:57:37.967Z,17.41
2023-05-04T19:00:06.689Z,17.34
2023-05-04T19:02:33.789Z,17.29
2023-05-04T19:05:00.400Z,17.29
2023-05-04T19:07:27.011Z,17.34
2023-05-04T19:09:53.618Z,17.15
2023-05-04T19:12:20.274Z,17.15
2023-05-04T19:14:49.065Z,17.06
2023-05-04T19:17:18.058Z,16.93
2023-05-04T19:19:44.773Z,16.72
2023-05-04T19:22:15.719Z,16.75
2023-05-04T19:24:42.463Z,16.58
2023-05-04T19:27:09.540Z,16.54
2023-05-04T19:29:36.131Z,16.43
2023-05-04T19:32:12.085Z,16.25
2023-05-04T19:34:43.292Z,16.34
2023-05-04T19:37:17.193Z,16.21
2023-05-04T19:39:43.808Z,15.84
2023-05-04T19:42:10.988Z,16.24
2023-05-04T19:44:37.622Z,16.16
2023-05-04T19:47:06.342Z,15.78
2023-05-04T19:49:40.196Z,15.36
2023-05-04T19:52:09.684Z,14.89
2023-05-04T19:54:38.267Z,14.78
2023-05-04T19:57:05.068Z,14.33
2023-05-04T19:59:31.936Z,14.61
2023-05-04T20:01:59.298Z,14.59
2023-05-04T20:04:26.152Z,14.53
2023-05-04T20:06:52.877Z,14.70
2023-05-04T20:09:19.424Z,14.73
2023-05-04T20:11:47.052Z,14.64
2023-05-04T20:14:13.711Z,14.68
2023-05-04T20:16:40.405Z,14.47
2023-05-04T20:19:06.960Z,13.73
2023-05-04T20:21:33.554Z,13.72
2023-05-04T20:24:00.122Z,13.71
2023-05-04T20:26:26.791Z,14.35
2023-05-04T20:28:53.303Z,14.21
2023-05-04T20:31:22.539Z,13.98
2023-05-04T20:33:49.113Z,13.63
2023-05-04T20:36:15.750Z,13.65
2023-05-04T20:38:42.277Z,13.69
2023-05-04T20:41:09.459Z,13.26
2023-05-04T20:43:41.848Z,13.59
2023-05-04T20:46:08.492Z,13.65
2023-05-04T20:48:35.476Z,13.58
2023-05-04T20:51:14.001Z,13.29
2023-05-04T20:53:41.558Z,13.11
2023-05-04T20:56:08.110Z,12.96
2023-05-04T20:58:37.765Z,13.03
2023-05-04T21:01:05.500Z,13.15
2023-05-04T21:03:32.226Z,12.96
2023-05-04T21:05:58.949Z,12.83
2023-05-04T21:08:25.576Z,12.80
2023-05-04T21:10:52.213Z,12.85
2023-05-04T21:13:21.729Z,12.16
2023-05-04T21:15:51.056Z,12.58
2023-05-04T21:18:19.168Z,12.49
2023-05-04T21:20:45.898Z,12.64
2023-05-04T21:23:12.490Z,12.05
2023-05-04T21:25:39.136Z,11.93
2023-05-04T21:28:07.968Z,12.12
2023-05-04T21:30:34.849Z,12.19
2023-05-04T21:33:01.377Z,12.33
2023-05-04T21:35:30.728Z,12.13
2023-05-04T21:37:58.489Z,12.41
2023-05-04T21:40:28.656Z,12.30
2023-05-04T21:42:57.800Z,12.54
2023-05-04T21:45:24.403Z,12.38
2023-05-04T21:47:51.103Z,12.57
2023-05-04T21:50:17.812Z,12.69
2023-05-04T21:52:44.450Z,12.60
2023-05-04T21:55:11.031Z,12.80
2023-05-04T21:57:37.934Z,12.90
2023-05-04T22:00:11.921Z,12.54
2023-05-04T22:02:39.066Z,12.35
2023-05-04T22:05:06.014Z,12.26
2023-05-04T22:07:33.409Z,12.28
2023-05-04T22:10:01.535Z,12.35
2023-05-04T22:12:30.554Z,12.52
2023-05-04T22:14:57.142Z,12.39
2023-05-04T22:17:23.722Z,12.39
2023-05-04T22:19:50.356Z,12.31
2023-05-04T22:22:16.942Z,11.98
2023-05-04T22:24:43.510Z,12.50
2023-05-04T22:27:13.250Z,12.67
2023-05-04T22:29:39.773Z,12.13
2023-05-04T22:32:06.361Z,12.23
2023-05-04T22:34:32.947Z,12.50
2023-05-04T22:37:01.929Z,12.25
2023-05-04T22:39:28.580Z,12.27
2023-05-04T22:41:58.145Z,12.21
2023-05-04T22:44:31.126Z,11.88
2023-05-04T22:46:59.783Z,11.58
2023-05-04T22:49:26.433Z,11.52
2023-05-04T22:51:53.032Z,11.81
2023-05-04T22:54:19.527Z,11.96
2023-05-04T22:56:46.162Z,11.95
2023-05-04T22:59:13.016Z,12.09
2023-05-04T23:01:43.211Z,12.02
2023-05-04T23:04:11.426Z,12.38
2023-05-04T23:06:38.702Z,12.54
2023-05-04T23:09:05.420Z,12.72
2023-05-04T23:11:32.200Z,12.51
2023-05-04T23:13:58.886Z,12.62
2023-05-04T23:16:25.568Z,12.42
2023-05-04T23:18:55.104Z,12.56
2023-05-04T23:21:21.710Z,12.50
2023-05-04T23:23:49.932Z,12.64
2023-05-04T23:26:16.652Z,12.53
2023-05-04T23:28:43.213Z,12.71
2023-05-04T23:31:09.882Z,12.69
2023-05-04T23:33:39.484Z,12.79
2023-05-04T23:36:06.511Z,12.66
2023-05-04T23:38:33.032Z,12.68
2023-05-04T23:41:02.014Z,12.79
2023-05-04T23:43:32.036Z,12.58
2023-05-04T23:45:59.723Z,12.79
2023-05-04T23:48:26.288Z,12.65
2023-05-04T23:50:55.683Z,12.70
2023-05-04T23:53:22.269Z,12.49
2023-05-04T23:55:56.463Z,12.41
2023-05-04T23:58:28.829Z,12.53
